sensor_id;sensor_type;location;lat;lon;timestamp;temperature;humidity
80701;DHT22;71609;42.630;23.380;2023-08-20T00:01:56;28.20;49.00
80701;DHT22;71609;42.630;23.380;2023-08-20T00:04:25;28.20;49.00
80701;DHT22;71609;42.630;23.380;2023-08-20T00:06:51;28.20;49.10
80701;DHT22;71609;42.630;23.380;2023-08-20T00:09:17;28.20;49.10
80701;DHT22;71609;42.630;23.380;2023-08-20T00:11:43;28.20;49.10
80701;DHT22;71609;42.630;23.380;2023-08-20T00:14:15;28.20;49.10
80701;DHT22;71609;42.630;23.380;2023-08-20T00:16:41;28.20;49.10
80701;DHT22;71609;42.630;23.380;2023-08-20T00:19:08;28.20;49.10
80701;DHT22;71609;42.630;23.380;2023-08-20T00:21:34;28.10;49.00
80701;DHT22;71609;42.630;23.380;2023-08-20T00:24:00;28.10;48.90
80701;DHT22;71609;42.630;23.380;2023-08-20T00:26:26;28.10;49.00
80701;DHT22;71609;42.630;23.380;2023-08-20T00:28:52;28.10;48.90
80701;DHT22;71609;42.630;23.380;2023-08-20T00:31:17;28.10;49.00
80701;DHT22;71609;42.630;23.380;2023-08-20T00:33:43;28.10;49.00
80701;DHT22;71609;42.630;23.380;2023-08-20T00:36:08;28.10;49.00
80701;DHT22;71609;42.630;23.380;2023-08-20T00:38:34;28.10;49.10
80701;DHT22;71609;42.630;23.380;2023-08-20T00:41:00;28.20;49.00
80701;DHT22;71609;42.630;23.380;2023-08-20T00:43:25;28.10;49.10
80701;DHT22;71609;42.630;23.380;2023-08-20T00:45:51;28.10;49.10
80701;DHT22;71609;42.630;23.380;2023-08-20T00:48:17;28.10;49.10
80701;DHT22;71609;42.630;23.380;2023-08-20T00:50:43;28.10;49.20
80701;DHT22;71609;42.630;23.380;2023-08-20T00:53:10;28.10;49.10
80701;DHT22;71609;42.630;23.380;2023-08-20T00:55:37;28.10;49.10
80701;DHT22;71609;42.630;23.380;2023-08-20T00:58:03;28.10;49.10
80701;DHT22;71609;42.630;23.380;2023-08-20T01:00:29;28.10;49.10
80701;DHT22;71609;42.630;23.380;2023-08-20T01:02:55;28.10;49.00
80701;DHT22;71609;42.630;23.380;2023-08-20T01:05:20;28.10;49.00
80701;DHT22;71609;42.630;23.380;2023-08-20T01:10:55;28.10;49.10
80701;DHT22;71609;42.630;23.380;2023-08-20T01:13:22;28.10;49.00
80701;DHT22;71609;42.630;23.380;2023-08-20T01:15:48;28.10;49.10
80701;DHT22;71609;42.630;23.380;2023-08-20T01:18:13;28.10;49.10
80701;DHT22;71609;42.630;23.380;2023-08-20T01:20:47;28.10;49.10
80701;DHT22;71609;42.630;23.380;2023-08-20T01:23:24;28.10;49.10
80701;DHT22;71609;42.630;23.380;2023-08-20T01:28:39;28.10;49.10
80701;DHT22;71609;42.630;23.380;2023-08-20T01:31:06;28.00;48.90
80701;DHT22;71609;42.630;23.380;2023-08-20T01:33:32;28.10;49.10
80701;DHT22;71609;42.630;23.380;2023-08-20T01:35:57;28.10;49.10
80701;DHT22;71609;42.630;23.380;2023-08-20T01:38:23;28.00;49.00
80701;DHT22;71609;42.630;23.380;2023-08-20T01:40:49;28.00;49.00
80701;DHT22;71609;42.630;23.380;2023-08-20T01:43:15;28.10;49.00
80701;DHT22;71609;42.630;23.380;2023-08-20T01:45:41;28.10;49.10
80701;DHT22;71609;42.630;23.380;2023-08-20T01:48:07;28.10;49.00
80701;DHT22;71609;42.630;23.380;2023-08-20T01:50:34;28.00;48.90
80701;DHT22;71609;42.630;23.380;2023-08-20T01:53:00;28.10;49.00
80701;DHT22;71609;42.630;23.380;2023-08-20T01:55:26;28.10;49.10
80701;DHT22;71609;42.630;23.380;2023-08-20T01:57:52;28.00;49.00
80701;DHT22;71609;42.630;23.380;2023-08-20T02:00:17;28.00;49.10
80701;DHT22;71609;42.630;23.380;2023-08-20T02:02:43;28.00;49.10
80701;DHT22;71609;42.630;23.380;2023-08-20T02:05:08;28.00;49.00
80701;DHT22;71609;42.630;23.380;2023-08-20T02:07:36;28.00;49.10
80701;DHT22;71609;42.630;23.380;2023-08-20T02:10:02;28.00;49.00
80701;DHT22;71609;42.630;23.380;2023-08-20T02:12:27;28.00;49.00
80701;DHT22;71609;42.630;23.380;2023-08-20T02:14:53;28.00;49.00
80701;DHT22;71609;42.630;23.380;2023-08-20T02:17:19;28.00;48.90
80701;DHT22;71609;42.630;23.380;2023-08-20T02:19:44;28.00;49.00
80701;DHT22;71609;42.630;23.380;2023-08-20T02:22:10;28.00;49.00
80701;DHT22;71609;42.630;23.380;2023-08-20T02:24:36;28.00;49.00
80701;DHT22;71609;42.630;23.380;2023-08-20T02:27:02;28.00;49.00
80701;DHT22;71609;42.630;23.380;2023-08-20T02:29:28;28.00;49.00
80701;DHT22;71609;42.630;23.380;2023-08-20T02:31:54;28.00;49.00
80701;DHT22;71609;42.630;23.380;2023-08-20T02:34:19;28.00;49.00
80701;DHT22;71609;42.630;23.380;2023-08-20T02:36:45;28.00;48.90
80701;DHT22;71609;42.630;23.380;2023-08-20T02:39:10;28.00;48.80
80701;DHT22;71609;42.630;23.380;2023-08-20T02:41:36;28.00;48.90
80701;DHT22;71609;42.630;23.380;2023-08-20T02:44:03;28.00;48.80
80701;DHT22;71609;42.630;23.380;2023-08-20T02:46:29;28.00;48.90
80701;DHT22;71609;42.630;23.380;2023-08-20T02:48:55;28.00;48.90
80701;DHT22;71609;42.630;23.380;2023-08-20T02:51:20;28.00;49.00
80701;DHT22;71609;42.630;23.380;2023-08-20T02:53:46;28.00;48.90
80701;DHT22;71609;42.630;23.380;2023-08-20T02:56:12;28.00;48.90
80701;DHT22;71609;42.630;23.380;2023-08-20T02:58:37;28.00;48.80
80701;DHT22;71609;42.630;23.380;2023-08-20T03:01:03;27.90;48.80
80701;DHT22;71609;42.630;23.380;2023-08-20T03:03:29;28.00;48.90
80701;DHT22;71609;42.630;23.380;2023-08-20T03:05:54;27.90;48.80
80701;DHT22;71609;42.630;23.380;2023-08-20T03:08:20;27.90;48.80
80701;DHT22;71609;42.630;23.380;2023-08-20T03:10:46;27.90;48.80
80701;DHT22;71609;42.630;23.380;2023-08-20T03:13:11;27.90;48.90
80701;DHT22;71609;42.630;23.380;2023-08-20T03:15:37;27.90;48.90
80701;DHT22;71609;42.630;23.380;2023-08-20T03:18:03;27.90;48.80
80701;DHT22;71609;42.630;23.380;2023-08-20T03:20:29;27.90;48.80
80701;DHT22;71609;42.630;23.380;2023-08-20T03:22:56;27.90;48.90
80701;DHT22;71609;42.630;23.380;2023-08-20T03:25:22;27.90;48.90
80701;DHT22;71609;42.630;23.380;2023-08-20T03:27:49;27.90;48.80
80701;DHT22;71609;42.630;23.380;2023-08-20T03:30:14;27.90;48.80
80701;DHT22;71609;42.630;23.380;2023-08-20T03:32:40;27.90;48.90
80701;DHT22;71609;42.630;23.380;2023-08-20T03:35:06;27.90;48.90
80701;DHT22;71609;42.630;23.380;2023-08-20T03:37:32;27.90;48.90
80701;DHT22;71609;42.630;23.380;2023-08-20T03:39:57;27.90;48.90
80701;DHT22;71609;42.630;23.380;2023-08-20T03:42:23;27.90;48.90
80701;DHT22;71609;42.630;23.380;2023-08-20T03:44:48;27.90;48.90
80701;DHT22;71609;42.630;23.380;2023-08-20T03:47:14;27.90;49.00
80701;DHT22;71609;42.630;23.380;2023-08-20T03:49:41;27.90;49.00
80701;DHT22;71609;42.630;23.380;2023-08-20T03:52:06;27.90;49.00
80701;DHT22;71609;42.630;23.380;2023-08-20T03:54:33;27.90;49.00
80701;DHT22;71609;42.630;23.380;2023-08-20T03:56:59;27.90;49.00
80701;DHT22;71609;42.630;23.380;2023-08-20T03:59:24;27.90;49.00
80701;DHT22;71609;42.630;23.380;2023-08-20T04:01:50;27.90;49.00
80701;DHT22;71609;42.630;23.380;2023-08-20T04:04:16;27.90;49.10
80701;DHT22;71609;42.630;23.380;2023-08-20T04:06:41;27.90;49.10
80701;DHT22;71609;42.630;23.380;2023-08-20T04:09:07;27.90;49.10
80701;DHT22;71609;42.630;23.380;2023-08-20T04:11:34;27.90;49.10
80701;DHT22;71609;42.630;23.380;2023-08-20T04:14:00;27.90;49.10
80701;DHT22;71609;42.630;23.380;2023-08-20T04:16:26;27.90;49.10
80701;DHT22;71609;42.630;23.380;2023-08-20T04:18:52;27.90;50.20
80701;DHT22;71609;42.630;23.380;2023-08-20T04:21:17;27.90;49.10
80701;DHT22;71609;42.630;23.380;2023-08-20T04:23:43;27.90;49.20
80701;DHT22;71609;42.630;23.380;2023-08-20T04:26:08;27.90;49.20
80701;DHT22;71609;42.630;23.380;2023-08-20T04:28:34;27.90;49.10
80701;DHT22;71609;42.630;23.380;2023-08-20T04:31:00;27.90;49.10
80701;DHT22;71609;42.630;23.380;2023-08-20T04:33:26;27.90;49.10
80701;DHT22;71609;42.630;23.380;2023-08-20T04:35:52;27.90;49.20
80701;DHT22;71609;42.630;23.380;2023-08-20T04:38:18;27.90;49.10
80701;DHT22;71609;42.630;23.380;2023-08-20T04:40:47;27.90;49.20
80701;DHT22;71609;42.630;23.380;2023-08-20T04:43:13;27.90;49.10
80701;DHT22;71609;42.630;23.380;2023-08-20T04:45:40;27.90;49.10
80701;DHT22;71609;42.630;23.380;2023-08-20T04:48:06;27.90;49.10
80701;DHT22;71609;42.630;23.380;2023-08-20T04:50:31;27.90;49.10
80701;DHT22;71609;42.630;23.380;2023-08-20T04:52:57;27.90;49.00
80701;DHT22;71609;42.630;23.380;2023-08-20T04:55:25;27.90;49.00
80701;DHT22;71609;42.630;23.380;2023-08-20T04:57:51;27.90;49.00
80701;DHT22;71609;42.630;23.380;2023-08-20T05:00:16;27.90;49.10
80701;DHT22;71609;42.630;23.380;2023-08-20T05:02:42;28.00;49.10
80701;DHT22;71609;42.630;23.380;2023-08-20T05:05:08;28.00;49.00
80701;DHT22;71609;42.630;23.380;2023-08-20T05:07:34;28.00;49.00
80701;DHT22;71609;42.630;23.380;2023-08-20T05:10:00;28.00;49.00
80701;DHT22;71609;42.630;23.380;2023-08-20T05:12:26;28.00;49.00
80701;DHT22;71609;42.630;23.380;2023-08-20T05:14:51;28.00;49.00
80701;DHT22;71609;42.630;23.380;2023-08-20T05:17:17;28.10;49.10
80701;DHT22;71609;42.630;23.380;2023-08-20T05:19:43;28.10;49.00
80701;DHT22;71609;42.630;23.380;2023-08-20T05:22:08;28.10;48.90
80701;DHT22;71609;42.630;23.380;2023-08-20T05:24:36;28.20;48.80
80701;DHT22;71609;42.630;23.380;2023-08-20T05:27:06;28.20;48.70
80701;DHT22;71609;42.630;23.380;2023-08-20T05:29:32;28.30;48.50
80701;DHT22;71609;42.630;23.380;2023-08-20T05:31:57;28.40;48.30
80701;DHT22;71609;42.630;23.380;2023-08-20T05:34:23;28.50;48.10
80701;DHT22;71609;42.630;23.380;2023-08-20T05:36:50;28.50;47.90
80701;DHT22;71609;42.630;23.380;2023-08-20T05:39:15;28.60;47.70
80701;DHT22;71609;42.630;23.380;2023-08-20T05:41:41;28.70;47.50
80701;DHT22;71609;42.630;23.380;2023-08-20T05:44:07;28.80;47.20
80701;DHT22;71609;42.630;23.380;2023-08-20T05:46:32;28.90;47.00
80701;DHT22;71609;42.630;23.380;2023-08-20T05:48:58;29.00;46.90
80701;DHT22;71609;42.630;23.380;2023-08-20T05:51:24;29.10;46.70
80701;DHT22;71609;42.630;23.380;2023-08-20T05:53:49;29.10;46.40
80701;DHT22;71609;42.630;23.380;2023-08-20T05:56:15;29.30;46.40
80701;DHT22;71609;42.630;23.380;2023-08-20T05:58:40;29.30;46.10
80701;DHT22;71609;42.630;23.380;2023-08-20T06:01:06;29.40;45.90
80701;DHT22;71609;42.630;23.380;2023-08-20T06:03:32;29.50;45.70
80701;DHT22;71609;42.630;23.380;2023-08-20T06:05:58;29.50;45.60
80701;DHT22;71609;42.630;23.380;2023-08-20T06:08:23;29.60;45.50
80701;DHT22;71609;42.630;23.380;2023-08-20T06:10:50;29.70;45.30
80701;DHT22;71609;42.630;23.380;2023-08-20T06:13:16;29.80;45.20
80701;DHT22;71609;42.630;23.380;2023-08-20T06:15:42;29.80;45.00
80701;DHT22;71609;42.630;23.380;2023-08-20T06:18:08;29.90;44.90
80701;DHT22;71609;42.630;23.380;2023-08-20T06:20:33;29.90;44.60
80701;DHT22;71609;42.630;23.380;2023-08-20T06:22:59;30.00;44.50
80701;DHT22;71609;42.630;23.380;2023-08-20T06:25:24;30.10;44.40
80701;DHT22;71609;42.630;23.380;2023-08-20T06:27:50;30.20;44.20
80701;DHT22;71609;42.630;23.380;2023-08-20T06:30:16;30.20;44.10
80701;DHT22;71609;42.630;23.380;2023-08-20T06:32:43;30.30;43.90
80701;DHT22;71609;42.630;23.380;2023-08-20T06:35:09;30.40;43.80
80701;DHT22;71609;42.630;23.380;2023-08-20T06:37:35;30.40;43.70
80701;DHT22;71609;42.630;23.380;2023-08-20T06:40:01;30.50;43.60
80701;DHT22;71609;42.630;23.380;2023-08-20T06:42:26;30.50;43.30
80701;DHT22;71609;42.630;23.380;2023-08-20T06:44:52;30.60;43.20
80701;DHT22;71609;42.630;23.380;2023-08-20T06:47:18;30.70;43.10
80701;DHT22;71609;42.630;23.380;2023-08-20T06:49:43;30.70;43.00
80701;DHT22;71609;42.630;23.380;2023-08-20T06:52:09;30.80;42.90
80701;DHT22;71609;42.630;23.380;2023-08-20T06:54:35;30.80;42.70
80701;DHT22;71609;42.630;23.380;2023-08-20T06:57:00;30.90;42.80
80701;DHT22;71609;42.630;23.380;2023-08-20T06:59:26;30.90;42.50
80701;DHT22;71609;42.630;23.380;2023-08-20T07:01:52;31.00;42.40
80701;DHT22;71609;42.630;23.380;2023-08-20T07:04:18;31.00;42.20
80701;DHT22;71609;42.630;23.380;2023-08-20T07:06:44;31.10;42.20
80701;DHT22;71609;42.630;23.380;2023-08-20T07:09:09;31.20;42.10
80701;DHT22;71609;42.630;23.380;2023-08-20T07:11:35;31.20;41.90
80701;DHT22;71609;42.630;23.380;2023-08-20T07:14:01;31.30;41.80
80701;DHT22;71609;42.630;23.380;2023-08-20T07:16:27;31.30;41.60
80701;DHT22;71609;42.630;23.380;2023-08-20T07:18:52;31.40;41.60
80701;DHT22;71609;42.630;23.380;2023-08-20T07:21:18;31.50;41.50
80701;DHT22;71609;42.630;23.380;2023-08-20T07:23:44;31.50;41.40
80701;DHT22;71609;42.630;23.380;2023-08-20T07:26:11;31.50;41.20
80701;DHT22;71609;42.630;23.380;2023-08-20T07:28:40;31.50;41.20
80701;DHT22;71609;42.630;23.380;2023-08-20T07:31:30;31.50;41.10
80701;DHT22;71609;42.630;23.380;2023-08-20T07:33:56;31.50;41.10
80701;DHT22;71609;42.630;23.380;2023-08-20T07:36:23;31.50;41.10
80701;DHT22;71609;42.630;23.380;2023-08-20T07:38:50;31.50;41.10
80701;DHT22;71609;42.630;23.380;2023-08-20T07:41:16;31.60;41.20
80701;DHT22;71609;42.630;23.380;2023-08-20T07:43:42;31.60;41.00
80701;DHT22;71609;42.630;23.380;2023-08-20T07:46:09;31.70;41.00
80701;DHT22;71609;42.630;23.380;2023-08-20T07:48:35;31.70;40.90
80701;DHT22;71609;42.630;23.380;2023-08-20T07:51:01;31.70;40.80
80701;DHT22;71609;42.630;23.380;2023-08-20T07:53:28;31.70;40.80
80701;DHT22;71609;42.630;23.380;2023-08-20T07:55:54;31.70;40.80
80701;DHT22;71609;42.630;23.380;2023-08-20T07:58:20;31.70;40.90
80701;DHT22;71609;42.630;23.380;2023-08-20T08:00:45;31.70;40.80
80701;DHT22;71609;42.630;23.380;2023-08-20T08:03:11;31.70;40.80
80701;DHT22;71609;42.630;23.380;2023-08-20T08:05:49;31.80;40.80
80701;DHT22;71609;42.630;23.380;2023-08-20T08:08:18;31.80;40.70
80701;DHT22;71609;42.630;23.380;2023-08-20T08:10:45;31.80;40.60
80701;DHT22;71609;42.630;23.380;2023-08-20T08:13:15;31.90;40.60
80701;DHT22;71609;42.630;23.380;2023-08-20T08:15:41;31.90;40.50
80701;DHT22;71609;42.630;23.380;2023-08-20T08:18:07;32.00;40.50
80701;DHT22;71609;42.630;23.380;2023-08-20T08:20:33;32.00;40.30
80701;DHT22;71609;42.630;23.380;2023-08-20T08:22:59;32.00;40.20
80701;DHT22;71609;42.630;23.380;2023-08-20T08:25:26;32.10;40.10
80701;DHT22;71609;42.630;23.380;2023-08-20T08:27:51;32.20;40.20
80701;DHT22;71609;42.630;23.380;2023-08-20T08:30:17;32.20;40.00
80701;DHT22;71609;42.630;23.380;2023-08-20T08:32:43;32.20;40.00
80701;DHT22;71609;42.630;23.380;2023-08-20T08:35:08;32.30;39.90
80701;DHT22;71609;42.630;23.380;2023-08-20T08:37:34;32.30;39.80
80701;DHT22;71609;42.630;23.380;2023-08-20T08:40:00;32.30;39.80
80701;DHT22;71609;42.630;23.380;2023-08-20T08:42:26;32.40;39.80
80701;DHT22;71609;42.630;23.380;2023-08-20T08:44:52;32.40;39.60
80701;DHT22;71609;42.630;23.380;2023-08-20T08:47:18;32.40;39.50
80701;DHT22;71609;42.630;23.380;2023-08-20T08:49:45;32.40;39.40
80701;DHT22;71609;42.630;23.380;2023-08-20T08:52:12;32.50;39.50
80701;DHT22;71609;42.630;23.380;2023-08-20T08:54:38;32.50;39.30
80701;DHT22;71609;42.630;23.380;2023-08-20T08:57:04;32.50;39.20
80701;DHT22;71609;42.630;23.380;2023-08-20T08:59:31;32.60;39.20
80701;DHT22;71609;42.630;23.380;2023-08-20T09:01:56;32.60;39.20
80701;DHT22;71609;42.630;23.380;2023-08-20T09:04:23;32.60;39.20
80701;DHT22;71609;42.630;23.380;2023-08-20T09:06:50;32.60;39.10
80701;DHT22;71609;42.630;23.380;2023-08-20T09:09:20;32.60;39.10
80701;DHT22;71609;42.630;23.380;2023-08-20T09:11:47;32.70;39.20
80701;DHT22;71609;42.630;23.380;2023-08-20T09:14:29;32.70;39.20
80701;DHT22;71609;42.630;23.380;2023-08-20T09:19:22;32.70;39.00
80701;DHT22;71609;42.630;23.380;2023-08-20T09:21:48;32.80;39.10
80701;DHT22;71609;42.630;23.380;2023-08-20T09:24:15;32.80;39.00
80701;DHT22;71609;42.630;23.380;2023-08-20T09:26:45;32.80;39.00
80701;DHT22;71609;42.630;23.380;2023-08-20T09:29:11;32.80;39.00
80701;DHT22;71609;42.630;23.380;2023-08-20T09:31:38;32.80;39.00
80701;DHT22;71609;42.630;23.380;2023-08-20T09:34:04;32.80;39.00
80701;DHT22;71609;42.630;23.380;2023-08-20T09:36:32;32.80;38.90
80701;DHT22;71609;42.630;23.380;2023-08-20T09:38:58;32.80;38.90
80701;DHT22;71609;42.630;23.380;2023-08-20T09:41:23;32.80;38.90
80701;DHT22;71609;42.630;23.380;2023-08-20T09:43:56;32.80;38.80
80701;DHT22;71609;42.630;23.380;2023-08-20T09:46:24;32.90;38.90
80701;DHT22;71609;42.630;23.380;2023-08-20T09:48:51;32.80;38.70
80701;DHT22;71609;42.630;23.380;2023-08-20T09:51:22;32.80;38.80
80701;DHT22;71609;42.630;23.380;2023-08-20T09:54:13;32.80;38.80
80701;DHT22;71609;42.630;23.380;2023-08-20T09:56:40;32.80;38.90
80701;DHT22;71609;42.630;23.380;2023-08-20T09:59:07;32.90;38.90
80701;DHT22;71609;42.630;23.380;2023-08-20T10:01:35;32.90;40.00
80701;DHT22;71609;42.630;23.380;2023-08-20T10:04:02;32.80;38.90
80701;DHT22;71609;42.630;23.380;2023-08-20T10:06:29;32.80;38.90
80701;DHT22;71609;42.630;23.380;2023-08-20T10:08:55;32.80;38.90
80701;DHT22;71609;42.630;23.380;2023-08-20T10:11:21;32.80;38.90
80701;DHT22;71609;42.630;23.380;2023-08-20T10:13:47;32.80;39.00
80701;DHT22;71609;42.630;23.380;2023-08-20T10:16:13;32.80;39.10
80701;DHT22;71609;42.630;23.380;2023-08-20T10:18:39;32.70;39.10
80701;DHT22;71609;42.630;23.380;2023-08-20T10:21:05;32.70;39.10
80701;DHT22;71609;42.630;23.380;2023-08-20T10:23:34;32.70;39.20
80701;DHT22;71609;42.630;23.380;2023-08-20T10:26:10;32.60;39.20
80701;DHT22;71609;42.630;23.380;2023-08-20T10:28:36;32.60;39.20
80701;DHT22;71609;42.630;23.380;2023-08-20T10:31:12;32.60;39.30
80701;DHT22;71609;42.630;23.380;2023-08-20T10:36:18;32.50;39.50
80701;DHT22;71609;42.630;23.380;2023-08-20T10:38:48;32.50;39.70
80701;DHT22;71609;42.630;23.380;2023-08-20T10:41:15;32.40;39.70
80701;DHT22;71609;42.630;23.380;2023-08-20T10:43:49;32.40;39.80
80701;DHT22;71609;42.630;23.380;2023-08-20T10:46:16;32.40;40.00
80701;DHT22;71609;42.630;23.380;2023-08-20T10:48:52;32.30;40.00
80701;DHT22;71609;42.630;23.380;2023-08-20T10:51:34;32.20;40.00
80701;DHT22;71609;42.630;23.380;2023-08-20T10:59:07;32.10;40.40
80701;DHT22;71609;42.630;23.380;2023-08-20T11:01:34;32.00;40.50
80701;DHT22;71609;42.630;23.380;2023-08-20T11:04:00;32.00;40.70
80701;DHT22;71609;42.630;23.380;2023-08-20T11:06:32;31.90;40.70
80701;DHT22;71609;42.630;23.380;2023-08-20T11:08:58;31.90;40.80
80701;DHT22;71609;42.630;23.380;2023-08-20T11:11:24;31.90;40.90
80701;DHT22;71609;42.630;23.380;2023-08-20T11:13:50;31.90;41.00
80701;DHT22;71609;42.630;23.380;2023-08-20T11:16:15;31.80;41.10
80701;DHT22;71609;42.630;23.380;2023-08-20T11:18:41;31.80;41.20
80701;DHT22;71609;42.630;23.380;2023-08-20T11:21:08;31.70;41.30
80701;DHT22;71609;42.630;23.380;2023-08-20T11:23:35;31.70;41.40
80701;DHT22;71609;42.630;23.380;2023-08-20T11:26:01;31.70;41.50
80701;DHT22;71609;42.630;23.380;2023-08-20T11:28:28;31.60;41.50
80701;DHT22;71609;42.630;23.380;2023-08-20T11:30:54;31.60;41.60
80701;DHT22;71609;42.630;23.380;2023-08-20T11:33:22;31.60;41.70
80701;DHT22;71609;42.630;23.380;2023-08-20T11:35:48;31.50;41.80
80701;DHT22;71609;42.630;23.380;2023-08-20T11:38:14;31.50;41.80
80701;DHT22;71609;42.630;23.380;2023-08-20T11:40:40;31.50;42.00
80701;DHT22;71609;42.630;23.380;2023-08-20T11:43:06;31.40;42.10
80701;DHT22;71609;42.630;23.380;2023-08-20T11:45:32;31.40;42.10
80701;DHT22;71609;42.630;23.380;2023-08-20T11:47:58;31.40;42.10
80701;DHT22;71609;42.630;23.380;2023-08-20T11:50:24;31.40;42.20
80701;DHT22;71609;42.630;23.380;2023-08-20T11:52:52;31.30;42.20
80701;DHT22;71609;42.630;23.380;2023-08-20T11:55:23;31.30;42.40
80701;DHT22;71609;42.630;23.380;2023-08-20T11:57:51;31.20;42.30
80701;DHT22;71609;42.630;23.380;2023-08-20T12:00:24;31.20;42.40
80701;DHT22;71609;42.630;23.380;2023-08-20T12:02:53;31.20;42.50
80701;DHT22;71609;42.630;23.380;2023-08-20T12:05:19;31.20;42.50
80701;DHT22;71609;42.630;23.380;2023-08-20T12:07:58;31.10;42.60
80701;DHT22;71609;42.630;23.380;2023-08-20T12:10:25;31.10;42.60
80701;DHT22;71609;42.630;23.380;2023-08-20T12:12:51;31.10;42.70
80701;DHT22;71609;42.630;23.380;2023-08-20T12:15:18;31.10;42.70
80701;DHT22;71609;42.630;23.380;2023-08-20T12:18:03;31.00;42.80
80701;DHT22;71609;42.630;23.380;2023-08-20T12:20:31;31.10;42.90
80701;DHT22;71609;42.630;23.380;2023-08-20T12:23:03;31.00;42.80
80701;DHT22;71609;42.630;23.380;2023-08-20T12:25:34;31.00;43.00
80701;DHT22;71609;42.630;23.380;2023-08-20T12:28:04;31.00;43.00
80701;DHT22;71609;42.630;23.380;2023-08-20T12:30:31;31.00;43.10
80701;DHT22;71609;42.630;23.380;2023-08-20T12:32:57;30.90;43.10
80701;DHT22;71609;42.630;23.380;2023-08-20T12:35:23;30.90;43.00
80701;DHT22;71609;42.630;23.380;2023-08-20T12:37:49;30.90;43.20
80701;DHT22;71609;42.630;23.380;2023-08-20T12:40:14;30.80;43.20
80701;DHT22;71609;42.630;23.380;2023-08-20T12:42:40;30.90;43.30
80701;DHT22;71609;42.630;23.380;2023-08-20T12:45:06;30.80;43.30
80701;DHT22;71609;42.630;23.380;2023-08-20T12:47:33;30.80;44.40
80701;DHT22;71609;42.630;23.380;2023-08-20T12:49:59;30.80;43.40
80701;DHT22;71609;42.630;23.380;2023-08-20T12:52:25;30.80;43.40
80701;DHT22;71609;42.630;23.380;2023-08-20T12:54:50;30.80;43.50
80701;DHT22;71609;42.630;23.380;2023-08-20T12:57:16;30.80;43.60
80701;DHT22;71609;42.630;23.380;2023-08-20T12:59:41;30.80;43.60
80701;DHT22;71609;42.630;23.380;2023-08-20T13:02:08;30.70;43.60
80701;DHT22;71609;42.630;23.380;2023-08-20T13:04:33;30.70;43.70
80701;DHT22;71609;42.630;23.380;2023-08-20T13:06:59;30.70;43.70
80701;DHT22;71609;42.630;23.380;2023-08-20T13:09:27;30.70;43.70
80701;DHT22;71609;42.630;23.380;2023-08-20T13:11:53;30.70;43.80
80701;DHT22;71609;42.630;23.380;2023-08-20T13:14:21;30.70;43.90
80701;DHT22;71609;42.630;23.380;2023-08-20T13:16:47;30.60;43.90
80701;DHT22;71609;42.630;23.380;2023-08-20T13:19:13;30.60;43.90
80701;DHT22;71609;42.630;23.380;2023-08-20T13:21:38;30.60;43.90
80701;DHT22;71609;42.630;23.380;2023-08-20T13:24:05;30.50;43.90
80701;DHT22;71609;42.630;23.380;2023-08-20T13:26:31;30.50;44.00
80701;DHT22;71609;42.630;23.380;2023-08-20T13:28:57;30.60;44.00
80701;DHT22;71609;42.630;23.380;2023-08-20T13:31:22;30.50;44.00
80701;DHT22;71609;42.630;23.380;2023-08-20T13:33:48;30.50;44.10
80701;DHT22;71609;42.630;23.380;2023-08-20T13:36:15;30.50;44.20
80701;DHT22;71609;42.630;23.380;2023-08-20T13:38:41;30.50;44.30
80701;DHT22;71609;42.630;23.380;2023-08-20T13:41:07;30.40;44.20
80701;DHT22;71609;42.630;23.380;2023-08-20T13:43:32;30.50;44.30
80701;DHT22;71609;42.630;23.380;2023-08-20T13:45:58;30.40;44.30
80701;DHT22;71609;42.630;23.380;2023-08-20T13:48:24;30.40;44.40
80701;DHT22;71609;42.630;23.380;2023-08-20T13:50:50;30.40;44.50
80701;DHT22;71609;42.630;23.380;2023-08-20T13:53:15;30.40;44.40
80701;DHT22;71609;42.630;23.380;2023-08-20T13:55:41;30.40;44.50
80701;DHT22;71609;42.630;23.380;2023-08-20T13:58:07;30.40;44.50
80701;DHT22;71609;42.630;23.380;2023-08-20T14:00:32;30.40;44.60
80701;DHT22;71609;42.630;23.380;2023-08-20T14:02:58;30.40;44.60
80701;DHT22;71609;42.630;23.380;2023-08-20T14:05:24;30.40;44.70
80701;DHT22;71609;42.630;23.380;2023-08-20T14:07:50;30.30;44.60
80701;DHT22;71609;42.630;23.380;2023-08-20T14:10:15;30.30;44.70
80701;DHT22;71609;42.630;23.380;2023-08-20T14:12:41;30.30;44.70
80701;DHT22;71609;42.630;23.380;2023-08-20T14:15:08;30.30;44.80
80701;DHT22;71609;42.630;23.380;2023-08-20T14:17:33;30.30;44.80
80701;DHT22;71609;42.630;23.380;2023-08-20T14:19:59;30.30;45.00
80701;DHT22;71609;42.630;23.380;2023-08-20T14:22:25;30.30;44.90
80701;DHT22;71609;42.630;23.380;2023-08-20T14:24:51;30.30;44.90
80701;DHT22;71609;42.630;23.380;2023-08-20T14:27:17;30.20;45.00
80701;DHT22;71609;42.630;23.380;2023-08-20T14:29:43;30.20;45.00
80701;DHT22;71609;42.630;23.380;2023-08-20T14:32:08;30.20;45.00
80701;DHT22;71609;42.630;23.380;2023-08-20T14:34:34;30.20;45.10
80701;DHT22;71609;42.630;23.380;2023-08-20T14:37:00;30.20;45.10
80701;DHT22;71609;42.630;23.380;2023-08-20T14:39:25;30.20;46.20
80701;DHT22;71609;42.630;23.380;2023-08-20T14:41:51;30.20;45.20
80701;DHT22;71609;42.630;23.380;2023-08-20T14:44:17;30.10;45.10
80701;DHT22;71609;42.630;23.380;2023-08-20T14:46:42;30.10;45.10
80701;DHT22;71609;42.630;23.380;2023-08-20T14:49:08;30.10;45.10
80701;DHT22;71609;42.630;23.380;2023-08-20T14:51:34;30.10;45.20
80701;DHT22;71609;42.630;23.380;2023-08-20T14:54:00;30.10;45.20
80701;DHT22;71609;42.630;23.380;2023-08-20T14:56:26;30.10;45.20
80701;DHT22;71609;42.630;23.380;2023-08-20T14:58:51;30.10;45.30
80701;DHT22;71609;42.630;23.380;2023-08-20T15:01:17;30.00;45.30
80701;DHT22;71609;42.630;23.380;2023-08-20T15:03:43;30.00;45.30
80701;DHT22;71609;42.630;23.380;2023-08-20T15:06:09;30.00;45.40
80701;DHT22;71609;42.630;23.380;2023-08-20T15:08:34;30.10;45.50
80701;DHT22;71609;42.630;23.380;2023-08-20T15:11:00;30.00;45.40
80701;DHT22;71609;42.630;23.380;2023-08-20T15:13:30;30.00;45.40
80701;DHT22;71609;42.630;23.380;2023-08-20T15:15:56;30.00;45.50
80701;DHT22;71609;42.630;23.380;2023-08-20T15:18:23;30.00;45.50
80701;DHT22;71609;42.630;23.380;2023-08-20T15:20:56;30.00;45.50
80701;DHT22;71609;42.630;23.380;2023-08-20T15:23:23;30.00;45.60
80701;DHT22;71609;42.630;23.380;2023-08-20T15:25:51;30.00;45.70
80701;DHT22;71609;42.630;23.380;2023-08-20T15:28:18;30.00;45.70